createdAt,value
2018-12-05T00:00:00.642Z,22.4
2018-12-05T00:03:06.646Z,22.4
2018-12-05T00:06:12.624Z,22.4
2018-12-05T00:09:18.651Z,22.4
2018-12-05T00:12:24.663Z,22.4
2018-12-05T00:15:30.656Z,22.4
2018-12-05T00:18:36.679Z,22.4
2018-12-05T00:21:45.412Z,22.3
2018-12-05T00:24:51.526Z,22.4
2018-12-05T00:27:57.595Z,22.3
2018-12-05T00:31:03.619Z,22.3
2018-12-05T00:34:09.468Z,22.3
2018-12-05T00:37:15.606Z,22.3
2018-12-05T00:40:21.855Z,22.3
2018-12-05T00:43:27.762Z,22.3
2018-12-05T00:46:33.782Z,22.3
2018-12-05T00:49:39.815Z,22.2
2018-12-05T00:52:45.793Z,22.2
2018-12-05T00:55:51.883Z,22.2
2018-12-05T00:58:57.857Z,22.2
2018-12-05T01:02:03.817Z,22.2
2018-12-05T01:05:09.725Z,22.2
2018-12-05T01:08:15.789Z,22.1
2018-12-05T01:11:21.696Z,22.1
2018-12-05T01:14:27.626Z,22.1
2018-12-05T01:17:33.577Z,22
2018-12-05T01:20:39.551Z,22
2018-12-05T01:23:45.492Z,22
2018-12-05T01:26:51.518Z,22
2018-12-05T01:29:57.466Z,22
2018-12-05T01:33:03.528Z,22
2018-12-05T01:36:09.505Z,22
2018-12-05T01:39:15.593Z,22
2018-12-05T01:42:21.494Z,21.9
2018-12-05T01:45:27.444Z,21.9
2018-12-05T01:48:33.423Z,21.9
2018-12-05T01:51:42.114Z,21.9
2018-12-05T01:54:47.998Z,21.9
2018-12-05T01:57:54.076Z,21.9
2018-12-05T02:01:00.115Z,21.9
2018-12-05T02:04:05.972Z,21.9
2018-12-05T02:07:11.918Z,21.9
2018-12-05T02:10:18.024Z,22
2018-12-05T02:13:23.992Z,22
2018-12-05T02:16:31.250Z,22
2018-12-05T02:19:37.103Z,22
2018-12-05T02:22:43.153Z,22
2018-12-05T02:25:49.020Z,22
2018-12-05T02:28:54.960Z,22.1
2018-12-05T02:32:00.882Z,22.1
2018-12-05T02:35:06.834Z,22.1
2018-12-05T02:38:12.834Z,22.2
2018-12-05T02:41:18.716Z,22.2
2018-12-05T02:44:24.857Z,22.2
2018-12-05T02:47:30.766Z,22.3
2018-12-05T02:50:36.864Z,22.3
2018-12-05T02:53:42.878Z,22.3
2018-12-05T02:56:48.880Z,22.4
2018-12-05T02:59:54.861Z,22.4
2018-12-05T03:03:00.906Z,22.5
2018-12-05T03:06:06.827Z,22.5
2018-12-05T03:09:12.866Z,22.5
2018-12-05T03:12:18.946Z,22.6
2018-12-05T03:15:24.982Z,22.6
2018-12-05T03:18:31.014Z,22.6
2018-12-05T03:21:36.906Z,22.7
2018-12-05T03:24:42.838Z,22.7
2018-12-05T03:27:48.814Z,22.7
2018-12-05T03:30:54.674Z,22.7
2018-12-05T03:34:00.882Z,22.8
2018-12-05T03:37:06.917Z,22.8
2018-12-05T03:40:12.926Z,22.8
2018-12-05T03:43:18.871Z,22.9
2018-12-05T03:46:24.843Z,22.9
2018-12-05T03:49:30.909Z,22.9
2018-12-05T03:52:36.882Z,22.9
2018-12-05T03:55:42.791Z,23
2018-12-05T03:58:48.732Z,23
2018-12-05T04:01:57.737Z,23.1
2018-12-05T04:05:03.751Z,23.1
2018-12-05T04:08:09.815Z,23.1
2018-12-05T04:11:15.809Z,23.2
2018-12-05T04:14:21.758Z,23.2
2018-12-05T04:17:27.995Z,23.3
2018-12-05T04:20:34.074Z,23.3
2018-12-05T04:23:39.981Z,23.4
2018-12-05T04:26:46.033Z,23.4
2018-12-05T04:29:51.957Z,23.5
2018-12-05T04:32:57.915Z,23.5
2018-12-05T04:36:03.874Z,23.5
2018-12-05T04:39:10.032Z,23.6
2018-12-05T04:42:16.011Z,23.6
2018-12-05T04:45:22.005Z,23.7
2018-12-05T04:48:28.009Z,23.7
2018-12-05T04:51:34.018Z,23.7
2018-12-05T04:54:39.980Z,23.8
2018-12-05T04:57:45.845Z,23.8
2018-12-05T05:00:51.794Z,23.8
2018-12-05T05:03:57.658Z,23.9
2018-12-05T05:07:03.607Z,23.9
2018-12-05T05:10:11.326Z,23.9
2018-12-05T05:13:17.277Z,24
2018-12-05T05:16:23.311Z,24
2018-12-05T05:19:29.324Z,24
2018-12-05T05:22:35.331Z,24
2018-12-05T05:25:41.338Z,24.1
2018-12-05T05:28:47.424Z,24.1
2018-12-05T05:31:53.483Z,24.1
2018-12-05T05:34:59.472Z,24.1
2018-12-05T05:38:05.415Z,24.1
2018-12-05T05:41:11.378Z,24.2
2018-12-05T05:44:17.337Z,24.2
2018-12-05T05:47:23.338Z,24.2
2018-12-05T05:50:29.190Z,24.3
2018-12-05T05:53:38.062Z,24.3
2018-12-05T05:56:45.409Z,24.4
2018-12-05T05:59:51.477Z,24.5
2018-12-05T06:02:57.438Z,24.5
2018-12-05T06:06:03.346Z,24.6
2018-12-05T06:09:09.292Z,24.6
2018-12-05T06:16:21.179Z,24.7
2018-12-05T06:19:27.019Z,24.9
2018-12-05T06:22:32.997Z,24.9
2018-12-05T06:25:39.064Z,24.8
2018-12-05T06:28:45.015Z,25
2018-12-05T06:31:51.031Z,25
2018-12-05T06:34:56.993Z,25.1
2018-12-05T06:38:02.950Z,25.2
2018-12-05T06:41:09.254Z,25.3
2018-12-05T06:44:15.111Z,25.3
2018-12-05T06:47:21.079Z,25.3
2018-12-05T06:50:28.750Z,25.3
2018-12-05T06:53:35.626Z,25.3
2018-12-05T06:56:41.623Z,25.4
2018-12-05T06:59:47.808Z,25.4
2018-12-05T07:02:53.868Z,25.5
2018-12-05T07:05:59.800Z,25.4
2018-12-05T07:09:05.755Z,25.4
2018-12-05T07:12:11.688Z,25.5
2018-12-05T07:15:17.581Z,25.5
2018-12-05T07:18:23.610Z,25.5
2018-12-05T07:21:29.679Z,25.5
2018-12-05T07:24:35.668Z,25.6
2018-12-05T07:27:41.823Z,25.6
2018-12-05T07:30:47.917Z,25.6
2018-12-05T07:33:54.217Z,25.7
2018-12-05T07:37:00.371Z,25.7
2018-12-05T07:40:07.260Z,25.7
2018-12-05T07:43:13.308Z,25.8
2018-12-05T07:46:19.507Z,25.9
2018-12-05T07:49:25.556Z,25.9
2018-12-05T07:52:31.634Z,25.9
2018-12-05T07:55:37.727Z,26
2018-12-05T07:58:44.111Z,26
2018-12-05T08:01:54.847Z,26
2018-12-05T08:05:01.242Z,26.1
2018-12-05T08:08:07.930Z,26.1
2018-12-05T08:11:14.364Z,26.1
2018-12-05T08:14:22.963Z,26.1
2018-12-05T08:17:29.393Z,26.1
2018-12-05T08:20:36.502Z,26.1
2018-12-05T08:23:43.809Z,26
2018-12-05T08:26:50.865Z,26.1
2018-12-05T08:29:57.680Z,26
2018-12-05T08:33:04.961Z,26.1
2018-12-05T08:36:12.207Z,26.1
2018-12-05T08:39:18.964Z,26
2018-12-05T08:42:25.531Z,26
2018-12-05T08:45:32.334Z,26
2018-12-05T08:48:39.417Z,26
2018-12-05T08:51:46.803Z,26
2018-12-05T08:54:54.008Z,26
2018-12-05T08:58:01.050Z,26
2018-12-05T09:01:10.436Z,26
2018-12-05T09:04:18.866Z,26
2018-12-05T09:07:27.353Z,26
2018-12-05T09:10:34.911Z,26
2018-12-05T09:13:40.906Z,26
2018-12-05T09:16:47.068Z,26
2018-12-05T09:19:53.232Z,26
2018-12-05T09:22:59.501Z,26
2018-12-05T09:26:05.592Z,26
2018-12-05T09:29:11.769Z,26
2018-12-05T09:32:21.137Z,26
2018-12-05T09:35:27.214Z,26
2018-12-05T09:38:33.537Z,26
2018-12-05T09:41:39.516Z,26
2018-12-05T09:44:45.572Z,26
2018-12-05T09:47:51.532Z,26
2018-12-05T09:50:59.085Z,26
2018-12-05T09:54:08.999Z,26
2018-12-05T09:57:15.172Z,26
2018-12-05T10:00:23.574Z,26
2018-12-05T10:03:29.473Z,26
2018-12-05T10:06:35.490Z,26
2018-12-05T10:09:41.461Z,26
2018-12-05T10:12:48.955Z,26
2018-12-05T10:15:56.021Z,26
2018-12-05T10:19:01.930Z,26
2018-12-05T10:22:07.945Z,26
2018-12-05T10:25:14.788Z,25.9
2018-12-05T10:28:20.749Z,26
2018-12-05T10:31:27.113Z,26
2018-12-05T10:34:33.197Z,26
2018-12-05T10:37:39.171Z,26
2018-12-05T10:40:45.153Z,26
2018-12-05T10:43:53.289Z,25.9
2018-12-05T10:46:59.292Z,26
2018-12-05T10:50:05.302Z,26
2018-12-05T10:53:11.334Z,26
2018-12-05T10:56:17.286Z,25.9
2018-12-05T10:59:23.493Z,26
2018-12-05T11:02:30.432Z,26
2018-12-05T11:05:36.514Z,26
2018-12-05T11:08:42.472Z,26
2018-12-05T11:11:48.558Z,26.1
2018-12-05T11:14:54.731Z,26.1
2018-12-05T11:18:00.902Z,26.1
2018-12-05T11:21:07.032Z,26.1
2018-12-05T11:24:12.988Z,26.1
2018-12-05T11:27:20.083Z,26.2
2018-12-05T11:30:27.078Z,26.2
2018-12-05T11:33:34.132Z,26.2
2018-12-05T11:36:42.878Z,26.3
2018-12-05T11:39:49.196Z,26.3
2018-12-05T11:42:58.881Z,26.3
2018-12-05T11:46:06.008Z,26.3
2018-12-05T11:49:12.158Z,26.3
2018-12-05T11:52:18.554Z,26.3
2018-12-05T11:55:26.031Z,26.4
2018-12-05T11:58:32.415Z,26.4
2018-12-05T12:01:39.928Z,26.4
2018-12-05T12:04:47.206Z,26.4
2018-12-05T12:07:53.711Z,26.4
2018-12-05T12:11:00.437Z,26.4
2018-12-05T12:14:07.815Z,26.5
2018-12-05T12:17:14.397Z,26.6
2018-12-05T12:20:20.999Z,26.5
2018-12-05T12:23:31.461Z,26.6
2018-12-05T12:26:37.862Z,26.6
2018-12-05T12:29:46.036Z,26.7
2018-12-05T12:32:53.065Z,26.8
2018-12-05T12:35:59.032Z,26.8
2018-12-05T12:39:10.352Z,26.9
2018-12-05T12:42:21.546Z,26.8
2018-12-05T12:45:32.829Z,26.9
2018-12-05T12:48:40.111Z,26.9
2018-12-05T12:51:47.441Z,26.9
2018-12-05T12:54:54.589Z,26.9
2018-12-05T12:58:03.009Z,26.9
2018-12-05T13:01:13.831Z,26.9
2018-12-05T13:04:28.700Z,26.8
2018-12-05T13:07:38.250Z,26.8
2018-12-05T13:10:47.874Z,26.9
2018-12-05T13:13:55.049Z,26.9
2018-12-05T13:17:01.938Z,26.9
2018-12-05T13:20:12.911Z,26.8
2018-12-05T13:23:19.539Z,26.8
2018-12-05T13:26:27.654Z,26.8
2018-12-05T13:29:35.783Z,26.8
2018-12-05T13:32:44.425Z,26.8
2018-12-05T13:35:53.562Z,26.8
2018-12-05T13:39:01.867Z,26.8
2018-12-05T13:42:09.292Z,26.8
2018-12-05T13:45:16.485Z,26.7
2018-12-05T13:48:22.921Z,26.7
2018-12-05T13:51:30.203Z,26.8
2018-12-05T13:54:36.352Z,26.7
2018-12-05T13:57:42.699Z,26.8
2018-12-05T14:00:48.960Z,26.8
2018-12-05T14:03:55.085Z,26.8
2018-12-05T14:07:01.042Z,26.8
2018-12-05T14:10:06.957Z,26.9
2018-12-05T14:13:12.952Z,26.8
2018-12-05T14:16:19.015Z,26.8
2018-12-05T14:19:28.580Z,26.8
2018-12-05T14:22:35.727Z,26.8
2018-12-05T14:25:41.952Z,26.7
2018-12-05T14:28:47.958Z,26.7
2018-12-05T14:31:54.084Z,26.6
2018-12-05T14:35:00.071Z,26.5
2018-12-05T14:38:10.002Z,26.5
2018-12-05T14:41:16.548Z,26.5
2018-12-05T14:44:23.450Z,26.4
2018-12-05T14:47:29.389Z,26.4
2018-12-05T14:50:35.371Z,26.3
2018-12-05T14:53:41.885Z,26.3
2018-12-05T14:56:47.814Z,26.3
2018-12-05T14:59:53.866Z,26.3
2018-12-05T15:02:59.836Z,26.2
2018-12-05T15:06:07.504Z,26.2
2018-12-05T15:09:13.389Z,26.2
2018-12-05T15:12:19.475Z,26.2
2018-12-05T15:15:25.882Z,26.1
2018-12-05T15:18:31.780Z,26.1
2018-12-05T15:21:37.765Z,26.1
2018-12-05T15:24:43.766Z,26
2018-12-05T15:27:50.085Z,26.1
2018-12-05T15:30:56.013Z,26
2018-12-05T15:34:01.990Z,26
2018-12-05T15:37:08.037Z,26
2018-12-05T15:40:14.160Z,25.9
2018-12-05T15:43:21.294Z,26
2018-12-05T15:46:27.543Z,26
2018-12-05T15:49:34.221Z,26
2018-12-05T15:52:40.956Z,25.9
2018-12-05T15:55:49.532Z,25.9
2018-12-05T15:58:55.598Z,25.9
2018-12-05T16:02:04.313Z,25.9
2018-12-05T16:05:10.384Z,25.9
2018-12-05T16:08:16.475Z,25.9
2018-12-05T16:11:22.560Z,25.9
2018-12-05T16:14:28.507Z,25.8
2018-12-05T16:17:34.443Z,25.8
2018-12-05T16:20:40.420Z,25.8
2018-12-05T16:23:46.438Z,25.8
2018-12-05T16:26:52.322Z,25.8
2018-12-05T16:29:58.455Z,25.8
2018-12-05T16:33:04.600Z,25.8
2018-12-05T16:36:11.168Z,25.9
2018-12-05T16:39:17.611Z,25.9
2018-12-05T16:42:23.717Z,25.8
2018-12-05T16:45:29.775Z,25.8
2018-12-05T16:48:35.820Z,25.7
2018-12-05T16:51:41.904Z,25.7
2018-12-05T16:54:47.845Z,25.7
2018-12-05T16:57:54.037Z,25.7
2018-12-05T17:00:59.971Z,25.6
2018-12-05T17:04:05.901Z,25.6
2018-12-05T17:07:11.883Z,25.6
2018-12-05T17:10:17.788Z,25.6
2018-12-05T17:13:23.744Z,25.5
2018-12-05T17:16:29.833Z,25.5
2018-12-05T17:19:35.843Z,25.5
2018-12-05T17:22:41.905Z,25.4
2018-12-05T17:25:47.832Z,25.4
2018-12-05T17:28:53.872Z,25.4
2018-12-05T17:31:59.932Z,25.4
2018-12-05T17:35:06.011Z,25.3
2018-12-05T17:38:12.051Z,25.3
2018-12-05T17:41:18.126Z,25.3
2018-12-05T17:44:24.297Z,25.2
2018-12-05T17:47:30.442Z,25.2
2018-12-05T17:50:36.405Z,25.1
2018-12-05T17:53:42.461Z,25.1
2018-12-05T17:56:48.501Z,25.1
2018-12-05T17:59:54.447Z,25
2018-12-05T18:03:00.394Z,25
2018-12-05T18:06:06.407Z,25
2018-12-05T18:09:12.516Z,25
2018-12-05T18:12:18.439Z,25
2018-12-05T18:15:24.481Z,24.9
2018-12-05T18:18:30.440Z,24.9
2018-12-05T18:21:36.465Z,24.8
2018-12-05T18:24:42.486Z,24.8
2018-12-05T18:27:48.469Z,24.8
2018-12-05T18:30:54.541Z,24.8
2018-12-05T18:34:00.444Z,24.7
2018-12-05T18:37:06.555Z,24.7
2018-12-05T18:40:12.462Z,24.7
2018-12-05T18:43:18.399Z,24.7
2018-12-05T18:46:24.346Z,24.7
2018-12-05T18:49:30.309Z,24.6
2018-12-05T18:52:36.197Z,24.6
2018-12-05T18:55:42.129Z,24.6
2018-12-05T18:58:48.021Z,24.6
2018-12-05T19:01:53.968Z,24.5
2018-12-05T19:04:59.898Z,24.5
2018-12-05T19:08:05.871Z,24.5
2018-12-05T19:11:13.296Z,24.5
2018-12-05T19:14:19.323Z,24.5
2018-12-05T19:17:25.351Z,24.4
2018-12-05T19:20:31.406Z,24.4
2018-12-05T19:23:37.339Z,24.4
2018-12-05T19:26:43.442Z,24.4
2018-12-05T19:29:49.346Z,24.4
2018-12-05T19:32:55.284Z,24.3
2018-12-05T19:36:01.153Z,24.3
2018-12-05T19:39:07.086Z,24.3
2018-12-05T19:42:13.084Z,24.2
2018-12-05T19:45:19.152Z,24.1
2018-12-05T19:48:25.124Z,24.1
2018-12-05T19:51:31.049Z,24.1
2018-12-05T19:54:37.013Z,24
2018-12-05T19:57:42.977Z,24
2018-12-05T20:00:48.831Z,23.9
2018-12-05T20:03:54.802Z,23.9
2018-12-05T20:07:00.869Z,23.9
2018-12-05T20:10:06.977Z,23.8
2018-12-05T20:13:12.941Z,23.8
2018-12-05T20:16:18.836Z,23.7
2018-12-05T20:19:24.770Z,23.7
2018-12-05T20:22:30.872Z,23.7
2018-12-05T20:25:38.456Z,23.6
2018-12-05T20:28:44.548Z,23.6
2018-12-05T20:31:50.511Z,23.6
2018-12-05T20:34:56.501Z,23.5
2018-12-05T20:38:02.411Z,23.5
2018-12-05T20:41:08.428Z,23.5
2018-12-05T20:44:14.263Z,23.4
2018-12-05T20:47:20.200Z,23.4
2018-12-05T20:50:26.201Z,23.4
2018-12-05T20:53:32.192Z,23.3
2018-12-05T20:56:38.058Z,23.3
2018-12-05T20:59:44.003Z,23.3
2018-12-05T21:02:49.970Z,23.2
2018-12-05T21:05:55.883Z,23.2
2018-12-05T21:09:01.837Z,23.2
2018-12-05T21:12:07.845Z,23.1
2018-12-05T21:15:13.747Z,23.1
2018-12-05T21:18:19.719Z,23.1
2018-12-05T21:21:25.681Z,23.1
2018-12-05T21:24:31.642Z,23
2018-12-05T21:27:37.655Z,23
2018-12-05T21:30:43.688Z,23
2018-12-05T21:33:49.676Z,23
2018-12-05T21:36:55.733Z,22.9
2018-12-05T21:40:01.750Z,22.9
2018-12-05T21:43:07.742Z,22.9
2018-12-05T21:46:13.623Z,22.9
2018-12-05T21:49:19.543Z,22.9
2018-12-05T21:52:25.565Z,22.9
2018-12-05T21:55:31.549Z,22.9
2018-12-05T21:58:37.479Z,22.8
2018-12-05T22:01:43.387Z,22.8
2018-12-05T22:04:49.364Z,22.8
2018-12-05T22:07:55.226Z,22.8
2018-12-05T22:11:01.233Z,22.7
2018-12-05T22:14:07.178Z,22.7
2018-12-05T22:17:13.170Z,22.7
2018-12-05T22:20:19.148Z,22.7
2018-12-05T22:23:25.079Z,22.6
2018-12-05T22:26:31.067Z,22.6
2018-12-05T22:29:36.939Z,22.6
2018-12-05T22:32:42.883Z,22.6
2018-12-05T22:35:48.809Z,22.6
2018-12-05T22:38:54.806Z,22.6
2018-12-05T22:42:00.721Z,22.6
2018-12-05T22:45:06.690Z,22.5
2018-12-05T22:48:12.693Z,22.5
2018-12-05T22:51:18.677Z,22.5
2018-12-05T22:54:24.734Z,22.5
2018-12-05T22:57:30.668Z,22.5
2018-12-05T23:00:36.688Z,22.5
2018-12-05T23:03:42.637Z,22.5
2018-12-05T23:06:48.606Z,22.5
2018-12-05T23:09:54.618Z,22.4
2018-12-05T23:13:00.607Z,22.4
2018-12-05T23:16:06.526Z,22.4
2018-12-05T23:19:12.463Z,22.4
2018-12-05T23:22:18.450Z,22.4
2018-12-05T23:25:27.043Z,22.4
2018-12-05T23:28:32.983Z,22.3
2018-12-05T23:31:38.883Z,22.3
2018-12-05T23:34:44.815Z,22.3
2018-12-05T23:37:50.809Z,22.3
2018-12-05T23:40:56.663Z,22.3
2018-12-05T23:44:02.595Z,22.3
2018-12-05T23:47:08.635Z,22.3
2018-12-05T23:50:14.670Z,22.3
2018-12-05T23:53:20.599Z,22.3
2018-12-05T23:56:26.540Z,22.2
2018-12-05T23:59:32.523Z,22.2
